Time;durP1;ratioP1;P1;durP2;ratioP2;P2;SDS_P1;SDS_P2;PMS_P1;PMS_P2;Temp;Humidity;BMP_temperature;BMP_pressure;BME280_temperature;BME280_humidity;BME280_pressure;Samples;Min_cycle;Max_cycle;Signal;HPM_P1;HPM_P2
2022/05/30 00:00:26;;;;;;;;;4.00;2.33;;;;;12.40;59.36;101079.75;5085151;27;45420;-69
2022/05/30 00:02:52;;;;;;;;;5.67;4.00;;;;;12.32;59.49;101081.50;5082776;27;45390;-69
2022/05/30 00:05:20;;;;;;;;;8.00;3.33;;;;;12.27;59.74;101081.94;5085613;27;45415;-68
2022/05/30 00:07:45;;;;;;;;;5.00;5.00;;;;;12.29;59.96;101084.53;5080471;27;45705;-68
2022/05/30 00:10:12;;;;;;;;;3.00;3.00;;;;;12.26;60.26;101085.72;5083270;28;45301;-68
2022/05/30 00:12:38;;;;;;;;;2.33;2.33;;;;;12.21;60.69;101088.00;5081114;27;45396;-69
2022/05/30 00:15:07;;;;;;;;;2.00;2.00;;;;;12.27;60.40;101084.66;5080091;28;45295;-68
2022/05/30 00:17:32;;;;;;;;;2.00;2.00;;;;;12.19;60.58;101061.94;5085438;27;45464;-68
2022/05/30 00:19:57;;;;;;;;;4.00;3.00;;;;;12.23;60.35;101063.34;5084884;27;45349;-68
2022/05/30 00:22:23;;;;;;;;;4.00;3.33;;;;;12.26;60.55;101066.63;5071217;27;45437;-69
2022/05/30 00:24:49;;;;;;;;;5.67;5.00;;;;;12.27;60.61;101057.44;5100335;27;45429;-68
2022/05/30 00:27:14;;;;;;;;;5.00;5.00;;;;;12.23;60.75;101061.47;5083016;27;45282;-69
2022/05/30 00:29:40;;;;;;;;;6.00;6.00;;;;;12.05;60.98;101041.53;5077313;28;45349;-68
2022/05/30 00:32:06;;;;;;;;;10.33;5.33;;;;;12.16;61.17;101049.47;5082554;27;45661;-68
2022/05/30 00:34:32;;;;;;;;;8.00;8.00;;;;;12.12;60.77;101056.25;5083907;27;45315;-68
2022/05/30 00:36:58;;;;;;;;;7.67;6.00;;;;;12.14;60.90;101048.75;5083679;27;45373;-68
2022/05/30 00:39:23;;;;;;;;;7.00;7.00;;;;;12.10;61.46;101052.81;5084562;27;46189;-68
2022/05/30 00:41:49;;;;;;;;;5.33;5.33;;;;;12.02;61.07;101028.19;5083125;27;45301;-68
2022/05/30 00:44:14;;;;;;;;;5.67;5.67;;;;;12.15;60.51;101055.06;5084469;27;45280;-68
2022/05/30 00:46:40;;;;;;;;;6.67;6.67;;;;;12.12;61.18;101048.06;5079107;27;45504;-68
2022/05/30 00:49:08;;;;;;;;;5.67;5.67;;;;;12.19;60.65;101053.78;5083055;28;47436;-69
2022/05/30 00:51:39;;;;;;;;;5.00;5.00;;;;;12.02;61.62;101039.94;5084209;27;45318;-68
2022/05/30 00:54:08;;;;;;;;;5.33;3.67;;;;;12.00;61.93;101046.53;5076750;28;45408;-68
2022/05/30 00:56:40;;;;;;;;;6.00;5.00;;;;;11.84;62.22;101044.44;5084869;27;45357;-68
2022/05/30 00:59:06;;;;;;;;;5.67;4.67;;;;;11.87;61.83;101035.13;5078461;28;45526;-69
2022/05/30 01:01:33;;;;;;;;;3.67;3.67;;;;;11.85;62.09;101029.84;5084164;27;45471;-69
2022/05/30 01:06:47;;;;;;;;;6.67;6.67;;;;;11.73;62.82;101033.72;5083656;27;45446;-69
2022/05/30 01:09:16;;;;;;;;;3.67;3.67;;;;;11.70;62.89;101029.44;5083615;27;46220;-69
2022/05/30 01:11:47;;;;;;;;;5.33;4.33;;;;;11.84;62.41;101024.53;5083561;27;45465;-69
2022/05/30 01:14:13;;;;;;;;;7.33;5.00;;;;;11.92;61.86;101027.38;5082789;28;45340;-69
2022/05/30 01:16:38;;;;;;;;;3.00;3.00;;;;;11.83;62.72;101014.69;5084080;27;45751;-68
2022/05/30 01:19:17;;;;;;;;;4.33;4.33;;;;;11.83;62.48;101022.84;5082475;27;45684;-69
2022/05/30 01:21:51;;;;;;;;;5.00;4.33;;;;;11.82;62.45;101027.44;5083675;27;45630;-68
2022/05/30 01:24:24;;;;;;;;;2.00;2.00;;;;;11.74;62.95;101018.25;5083013;28;45434;-69
2022/05/30 01:26:58;;;;;;;;;3.00;1.00;;;;;11.69;63.25;101027.72;5083102;27;45751;-68
2022/05/30 01:29:34;;;;;;;;;4.33;2.67;;;;;11.76;63.12;101019.88;5082465;27;48589;-69
2022/05/30 01:31:59;;;;;;;;;4.67;4.00;;;;;11.71;63.86;101022.97;5081455;27;45695;-68
2022/05/30 01:34:27;;;;;;;;;5.00;3.00;;;;;11.66;63.45;101019.88;5084104;27;45718;-69
2022/05/30 01:36:53;;;;;;;;;3.67;3.00;;;;;11.64;63.54;101015.56;5082773;27;45426;-68
2022/05/30 01:39:18;;;;;;;;;4.00;4.00;;;;;11.66;63.47;101014.41;5083450;28;46319;-68
2022/05/30 01:41:44;;;;;;;;;5.67;5.00;;;;;11.70;63.28;101006.78;5083161;27;45154;-69
2022/05/30 01:44:10;;;;;;;;;7.33;6.00;;;;;11.67;64.08;101016.13;5082371;28;45283;-68
2022/05/30 01:46:35;;;;;;;;;3.67;3.00;;;;;11.67;63.72;101018.88;5083700;27;45605;-69
2022/05/30 01:49:00;;;;;;;;;7.00;4.33;;;;;11.66;63.20;101011.69;5083576;27;46343;-68
2022/05/30 01:51:26;;;;;;;;;5.67;4.67;;;;;11.77;63.19;101020.69;5067365;27;45376;-69
2022/05/30 01:53:52;;;;;;;;;5.00;3.00;;;;;11.60;63.90;101006.84;5083643;27;45347;-68
2022/05/30 01:56:19;;;;;;;;;3.67;3.67;;;;;11.50;64.01;101016.91;5064975;27;45552;-69
2022/05/30 01:58:44;;;;;;;;;5.00;3.00;;;;;11.49;64.32;101020.63;5083253;28;45590;-68
2022/05/30 02:01:24;;;;;;;;;4.33;3.00;;;;;11.52;64.46;101019.47;5082990;27;45335;-68
2022/05/30 02:03:51;;;;;;;;;3.33;3.33;;;;;11.41;64.92;101020.50;5082070;28;45412;-69
2022/05/30 02:06:19;;;;;;;;;6.33;4.67;;;;;11.45;64.54;101019.22;5083474;27;45648;-69
2022/05/30 02:08:47;;;;;;;;;9.67;7.33;;;;;11.41;64.93;101017.78;5079193;28;45540;-68
2022/05/30 02:11:13;;;;;;;;;6.00;6.00;;;;;11.38;64.79;101028.97;5083048;27;45410;-68
2022/05/30 02:13:38;;;;;;;;;3.67;3.67;;;;;11.33;65.07;101032.13;5081933;28;45361;-68
2022/05/30 02:18:51;;;;;;;;;4.00;4.00;;;;;11.34;65.33;101027.53;5081951;28;45796;-69
2022/05/30 02:21:17;;;;;;;;;6.33;5.00;;;;;11.14;65.41;101002.25;5080581;27;45200;-69
2022/05/30 02:23:42;;;;;;;;;5.33;5.00;;;;;11.24;65.46;101021.28;5082183;27;45277;-68
2022/05/30 02:26:08;;;;;;;;;10.33;4.00;;;;;11.29;65.44;101024.41;5083903;27;45502;-69
2022/05/30 02:28:33;;;;;;;;;9.67;7.00;;;;;11.25;65.42;101023.00;5079235;27;46502;-69
2022/05/30 02:30:58;;;;;;;;;9.67;9.00;;;;;11.19;65.55;101018.97;5075937;28;45441;-69
2022/05/30 02:38:52;;;;;;;;;10.00;7.00;;;;;11.26;64.79;101020.09;5082544;28;45888;-69
2022/05/30 02:41:18;;;;;;;;;9.00;9.00;;;;;11.30;64.51;101017.97;5081182;27;45442;-69
2022/05/30 02:43:44;;;;;;;;;10.33;10.00;;;;;11.27;65.24;101031.84;5082843;28;45801;-68
2022/05/30 02:46:10;;;;;;;;;8.33;7.00;;;;;11.21;64.94;101021.56;5083247;27;45324;-69
2022/05/30 02:48:36;;;;;;;;;10.67;10.33;;;;;11.17;65.29;101022.88;5082361;28;45398;-69
2022/05/30 02:51:01;;;;;;;;;6.00;6.00;;;;;11.17;65.05;101014.69;5082919;28;45377;-69
2022/05/30 02:53:27;;;;;;;;;10.67;6.67;;;;;11.06;65.78;101023.00;5082408;27;45375;-69
2022/05/30 02:55:52;;;;;;;;;7.67;5.67;;;;;11.10;65.21;101013.56;5083401;27;45397;-69
2022/05/30 02:58:18;;;;;;;;;9.67;6.67;;;;;11.10;65.19;101024.44;5082216;27;46361;-69
2022/05/30 03:00:43;;;;;;;;;6.00;4.33;;;;;11.05;65.78;101016.69;5080894;28;45309;-69
2022/05/30 03:03:08;;;;;;;;;10.00;5.00;;;;;11.08;65.71;101016.44;5080938;27;45306;-69
2022/05/30 03:05:34;;;;;;;;;4.67;4.67;;;;;10.99;65.75;101011.00;5083040;27;45481;-69
2022/05/30 03:08:04;;;;;;;;;11.33;10.00;;;;;11.01;65.97;101015.28;5082170;27;45422;-69
2022/05/30 03:10:29;;;;;;;;;8.00;7.33;;;;;10.96;65.43;101008.59;5082472;27;45392;-69
2022/05/30 03:12:54;;;;;;;;;5.33;5.33;;;;;10.97;66.09;101023.88;5080488;27;45495;-69
2022/05/30 03:15:20;;;;;;;;;6.33;6.00;;;;;10.96;65.92;101022.19;5082557;27;45380;-69
2022/05/30 03:17:45;;;;;;;;;7.67;5.00;;;;;10.98;65.75;101025.59;5086865;27;48129;-69
2022/05/30 03:20:11;;;;;;;;;5.00;5.00;;;;;10.94;65.94;101008.72;5097521;27;45326;-69
2022/05/30 03:22:36;;;;;;;;;5.00;5.00;;;;;11.02;65.36;101032.47;5084393;27;45440;-69
2022/05/30 03:25:01;;;;;;;;;10.33;8.00;;;;;11.04;65.23;101020.41;5085350;28;45395;-69
2022/05/30 03:27:27;;;;;;;;;8.33;8.00;;;;;11.00;65.45;101018.16;5083811;27;46681;-69
2022/05/30 03:29:52;;;;;;;;;7.67;7.67;;;;;11.08;64.87;101031.88;5084267;27;45658;-69
2022/05/30 03:32:17;;;;;;;;;5.00;5.00;;;;;11.07;65.11;101031.03;5083751;27;45449;-69
2022/05/30 03:34:43;;;;;;;;;9.33;7.00;;;;;11.01;65.52;101034.31;5102282;27;45548;-69
2022/05/30 03:37:08;;;;;;;;;9.33;9.33;;;;;10.81;66.05;101038.88;5085419;27;45485;-69
2022/05/30 03:39:33;;;;;;;;;11.33;10.00;;;;;10.82;66.56;101035.16;5088971;27;45466;-69
2022/05/30 03:41:59;;;;;;;;;8.00;5.67;;;;;10.75;66.64;101031.31;5075884;27;45499;-68
2022/05/30 03:44:24;;;;;;;;;4.67;4.67;;;;;10.75;66.60;101030.44;5085718;27;45589;-69
2022/05/30 03:46:49;;;;;;;;;12.33;10.00;;;;;10.77;66.43;101036.59;5085187;27;46335;-69
2022/05/30 03:49:15;;;;;;;;;12.00;9.00;;;;;10.74;66.74;101032.31;5085773;27;45361;-68
2022/05/30 03:51:40;;;;;;;;;10.00;10.00;;;;;10.64;66.79;101034.19;5084164;27;45468;-69
2022/05/30 03:54:05;;;;;;;;;15.00;12.67;;;;;10.67;66.96;101033.88;5086026;27;45267;-68
2022/05/30 03:56:31;;;;;;;;;11.00;10.00;;;;;10.64;66.65;101026.03;5084930;27;46438;-68
2022/05/30 03:58:56;;;;;;;;;9.33;9.33;;;;;10.69;66.80;101033.75;5078649;28;45263;-69
2022/05/30 04:01:21;;;;;;;;;13.33;10.67;;;;;10.65;67.04;101041.34;5100883;27;45285;-69
2022/05/30 04:03:47;;;;;;;;;9.00;9.00;;;;;10.54;67.43;101036.00;5086099;27;45306;-69
2022/05/30 04:06:12;;;;;;;;;10.00;10.00;;;;;10.63;66.76;101043.31;5082917;27;46795;-68
2022/05/30 04:08:38;;;;;;;;;8.67;8.00;;;;;10.60;67.10;101038.16;5085021;27;45381;-69
2022/05/30 04:11:04;;;;;;;;;11.67;10.00;;;;;10.70;66.72;101049.91;5084488;27;45346;-69
2022/05/30 04:13:29;;;;;;;;;8.67;8.33;;;;;10.62;66.81;101038.03;5085292;27;45383;-70
2022/05/30 04:15:54;;;;;;;;;8.67;8.67;;;;;10.60;66.96;101049.03;5085446;28;45704;-69
2022/05/30 04:18:20;;;;;;;;;17.50;13.25;;;;;10.62;66.83;101049.75;5084539;27;45429;-70
2022/05/30 04:20:48;;;;;;;;;10.33;9.00;;;;;10.72;66.56;101061.50;5101258;27;45411;-69
2022/05/30 04:23:15;;;;;;;;;13.00;11.67;;;;;10.75;66.60;101060.34;5083955;27;45441;-69
2022/05/30 04:25:40;;;;;;;;;10.67;9.33;;;;;10.69;66.73;101064.50;5084508;27;45328;-70
2022/05/30 04:28:06;;;;;;;;;14.00;11.67;;;;;10.82;66.02;101059.63;5084597;27;45408;-69
2022/05/30 04:30:31;;;;;;;;;10.67;10.67;;;;;10.88;65.76;101056.34;5084925;27;45436;-69
2022/05/30 04:32:56;;;;;;;;;8.67;8.00;;;;;10.84;65.90;101057.63;5082539;27;45459;-69
2022/05/30 04:35:22;;;;;;;;;15.33;12.00;;;;;10.97;65.62;101061.91;5082662;28;46900;-69
2022/05/30 04:37:49;;;;;;;;;8.00;7.33;;;;;10.97;65.58;101062.78;5083055;27;45424;-69
2022/05/30 04:40:18;;;;;;;;;11.00;7.67;;;;;10.95;65.33;101055.78;5082766;27;45322;-70
2022/05/30 04:42:44;;;;;;;;;9.33;9.00;;;;;10.87;65.19;101057.38;5084169;27;45463;-69
2022/05/30 04:45:10;;;;;;;;;7.67;7.67;;;;;10.68;65.52;101041.03;5081649;27;46559;-69
2022/05/30 04:47:36;;;;;;;;;10.00;9.00;;;;;10.82;65.38;101059.63;5083734;27;45330;-69
2022/05/30 04:50:09;;;;;;;;;12.00;9.00;;;;;10.86;65.34;101055.66;5084620;27;45263;-70
2022/05/30 04:52:35;;;;;;;;;8.67;8.67;;;;;10.87;65.08;101057.38;5079180;27;45512;-70
2022/05/30 04:55:00;;;;;;;;;7.00;7.00;;;;;11.00;64.64;101057.06;5083257;27;45356;-70
2022/05/30 04:57:26;;;;;;;;;13.00;9.00;;;;;11.18;64.53;101066.19;5083673;27;45424;-69
2022/05/30 04:59:51;;;;;;;;;10.00;6.33;;;;;12.13;61.66;101068.00;5082192;27;45409;-70
2022/05/30 05:02:17;;;;;;;;;9.67;9.00;;;;;12.18;60.59;101066.53;5083270;27;45475;-69
2022/05/30 05:04:43;;;;;;;;;9.00;9.00;;;;;11.93;60.96;101061.75;5082075;28;46970;-69
2022/05/30 05:07:09;;;;;;;;;9.33;8.67;;;;;11.52;62.27;101074.75;5083759;27;45407;-70
2022/05/30 05:09:56;;;;;;;;;15.00;14.75;;;;;11.49;62.73;101074.19;5084311;27;45258;-69
2022/05/30 05:12:21;;;;;;;;;13.67;10.00;;;;;11.57;62.74;101083.34;5083490;27;45307;-68
2022/05/30 05:14:47;;;;;;;;;14.00;11.33;;;;;11.57;62.57;101080.63;5083636;27;45315;-68
2022/05/30 05:17:12;;;;;;;;;14.00;10.00;;;;;11.67;62.40;101062.41;5079433;27;45333;-68
2022/05/30 05:19:40;;;;;;;;;10.33;10.33;;;;;11.78;62.38;101071.41;5081574;28;45411;-68
2022/05/30 05:22:06;;;;;;;;;10.00;9.67;;;;;11.87;61.50;101075.97;5081093;27;45203;-69
2022/05/30 05:24:32;;;;;;;;;10.67;8.67;;;;;12.21;61.44;101077.09;5082420;28;45342;-69
2022/05/30 05:26:57;;;;;;;;;11.67;10.00;;;;;12.83;59.61;101083.63;5080482;27;45362;-68
2022/05/30 05:29:23;;;;;;;;;8.00;8.00;;;;;12.76;58.96;101079.81;5099470;27;45318;-68
2022/05/30 05:31:49;;;;;;;;;12.67;11.00;;;;;12.60;58.84;101082.34;5083724;27;45426;-70
2022/05/30 05:34:16;;;;;;;;;14.00;10.67;;;;;12.48;59.25;101079.84;5082250;28;47153;-69
2022/05/30 05:36:46;;;;;;;;;12.33;8.00;;;;;12.23;59.98;101076.97;5067978;27;45361;-69
2022/05/30 05:39:12;;;;;;;;;9.33;8.33;;;;;12.28;60.63;101086.41;5079005;28;45349;-69
2022/05/30 05:41:41;;;;;;;;;10.33;10.00;;;;;12.25;60.31;101078.53;5083281;27;45554;-70
2022/05/30 05:44:06;;;;;;;;;16.00;13.00;;;;;12.19;60.29;101084.59;5074576;28;47095;-68
2022/05/30 05:46:32;;;;;;;;;8.00;8.00;;;;;12.32;60.14;101082.38;5082159;27;45255;-70
2022/05/30 05:48:58;;;;;;;;;15.00;11.00;;;;;12.36;59.90;101091.94;5083233;27;45383;-70
2022/05/30 05:51:25;;;;;;;;;8.67;8.67;;;;;12.43;59.86;101082.16;5083221;27;45557;-68
2022/05/30 05:53:51;;;;;;;;;12.67;11.67;;;;;12.52;59.87;101084.97;5082879;28;45451;-69
2022/05/30 05:56:29;;;;;;;;;9.33;7.33;;;;;12.44;59.61;101097.50;5082570;27;45274;-69
2022/05/30 05:58:54;;;;;;;;;11.00;10.67;;;;;12.53;59.50;101094.88;5080862;27;45420;-70
2022/05/30 06:01:26;;;;;;;;;13.67;8.67;;;;;12.97;58.40;101095.88;5082882;27;45326;-68
2022/05/30 06:03:53;;;;;;;;;12.00;10.67;;;;;14.52;55.46;101085.88;5080585;28;47166;-70
2022/05/30 06:06:19;;;;;;;;;10.00;10.00;;;;;14.75;53.31;101086.97;5081829;27;45597;-68
2022/05/30 06:08:44;;;;;;;;;11.33;10.33;;;;;13.88;54.38;101078.22;5082757;27;45407;-68
2022/05/30 06:11:09;;;;;;;;;6.33;6.33;;;;;13.82;55.49;101092.50;5084118;28;45518;-69
2022/05/30 06:13:37;;;;;;;;;9.67;7.67;;;;;13.86;55.20;101097.50;5082444;27;46310;-69
2022/05/30 06:16:12;;;;;;;;;7.00;6.00;;;;;13.88;55.59;101097.34;5070456;28;45373;-69
2022/05/30 06:18:38;;;;;;;;;12.00;9.67;;;;;13.88;55.49;101098.16;5080651;27;45451;-69
2022/05/30 06:21:05;;;;;;;;;8.00;8.00;;;;;13.84;55.04;101090.47;5078233;27;46124;-69
2022/05/30 06:23:30;;;;;;;;;11.33;10.67;;;;;13.87;55.37;101096.47;5079050;27;47032;-69
2022/05/30 06:25:56;;;;;;;;;8.67;8.67;;;;;13.70;55.56;101075.53;5080447;28;45275;-69
2022/05/30 06:28:22;;;;;;;;;9.33;9.00;;;;;13.76;55.66;101080.34;5079663;27;45556;-69
2022/05/30 06:30:47;;;;;;;;;8.00;7.00;;;;;13.98;55.16;101081.66;5080638;28;45621;-70
2022/05/30 06:33:12;;;;;;;;;10.00;9.67;;;;;14.17;54.99;101086.06;5079023;27;47510;-71
2022/05/30 06:35:45;;;;;;;;;11.33;10.00;;;;;13.71;55.25;101088.16;5081519;28;45226;-69
2022/05/30 06:38:11;;;;;;;;;10.33;8.33;;;;;13.58;55.97;101088.59;5072033;27;45444;-71
2022/05/30 06:40:37;;;;;;;;;10.67;6.00;;;;;13.93;55.59;101094.97;5079644;28;45269;-69
2022/05/30 06:43:03;;;;;;;;;7.67;7.67;;;;;14.11;55.27;101100.34;5080691;27;46468;-69
2022/05/30 06:45:29;;;;;;;;;10.00;8.67;;;;;14.23;54.61;101097.19;5081790;27;45376;-70
2022/05/30 06:47:54;;;;;;;;;14.33;12.67;;;;;14.10;54.59;101095.91;5081102;27;45472;-69
2022/05/30 06:50:20;;;;;;;;;15.67;11.00;;;;;14.14;55.21;101097.28;5082518;28;45356;-68
2022/05/30 06:52:45;;;;;;;;;8.67;7.00;;;;;14.45;54.42;101098.50;5078391;27;46954;-70
2022/05/30 06:55:11;;;;;;;;;10.00;9.00;;;;;14.61;53.57;101106.75;5078066;28;45445;-69
2022/05/30 07:00:20;;;;;;;;;10.00;8.33;;;;;14.74;53.27;101087.16;5081565;28;45378;-69
2022/05/30 07:02:46;;;;;;;;;14.67;12.00;;;;;14.34;53.88;101093.28;5080203;27;45479;-69
2022/05/30 07:05:11;;;;;;;;;9.67;8.33;;;;;14.17;54.43;101075.13;5081016;27;45330;-69
2022/05/30 07:07:41;;;;;;;;;10.67;9.00;;;;;14.50;53.98;101087.91;5080751;27;45455;-70
2022/05/30 07:10:08;;;;;;;;;9.00;7.67;;;;;14.30;53.46;101091.91;5068578;27;45493;-70
2022/05/30 07:12:34;;;;;;;;;6.00;6.00;;;;;14.24;53.69;101089.84;5079706;27;46546;-69
2022/05/30 07:14:59;;;;;;;;;10.33;9.00;;;;;14.55;53.14;101085.53;5079353;27;45435;-72
2022/05/30 07:17:25;;;;;;;;;11.00;11.00;;;;;14.65;53.22;101082.66;5078784;27;45375;-70
2022/05/30 07:19:51;;;;;;;;;7.67;7.67;;;;;14.74;52.98;101088.00;5081211;27;45685;-69
2022/05/30 07:22:17;;;;;;;;;7.67;6.33;;;;;15.05;51.86;101087.38;5080423;27;46506;-70
2022/05/30 07:24:43;;;;;;;;;13.00;9.00;;;;;15.23;51.37;101093.53;5080592;27;45367;-70
2022/05/30 07:27:09;;;;;;;;;5.00;3.67;;;;;15.41;50.50;101093.38;5080056;27;45504;-70
2022/05/30 07:29:34;;;;;;;;;4.67;4.67;;;;;15.50;49.62;101101.41;5096597;27;45527;-70
2022/05/30 07:32:02;;;;;;;;;6.67;5.33;;;;;15.54;49.63;101089.13;5079543;27;45321;-71
2022/05/30 07:34:28;;;;;;;;;10.33;5.33;;;;;15.50;49.54;101093.19;5081598;27;45285;-70
2022/05/30 07:36:53;;;;;;;;;6.33;6.00;;;;;15.49;49.45;101088.75;5080992;27;45656;-69
2022/05/30 07:39:19;;;;;;;;;7.33;6.67;;;;;15.45;48.82;101092.84;5082118;27;45357;-69
2022/05/30 07:41:45;;;;;;;;;5.00;5.00;;;;;15.63;48.77;101089.13;5080801;27;45396;-69
2022/05/30 07:44:10;;;;;;;;;3.33;3.00;;;;;15.38;48.16;101083.63;5081277;27;45496;-69
2022/05/30 07:46:39;;;;;;;;;6.00;4.33;;;;;15.11;49.61;101081.22;5081179;27;45496;-70
2022/05/30 07:49:04;;;;;;;;;7.00;5.00;;;;;15.06;50.39;101078.13;5082376;27;45443;-70
2022/05/30 07:51:30;;;;;;;;;4.00;4.00;;;;;15.31;49.92;101089.94;5081275;27;46195;-69
2022/05/30 07:53:55;;;;;;;;;7.67;6.00;;;;;15.42;49.55;101084.97;5081171;28;45339;-70
2022/05/30 07:56:20;;;;;;;;;7.00;5.00;;;;;15.78;49.07;101081.91;5081395;27;45346;-70
2022/05/30 07:58:46;;;;;;;;;8.67;6.67;;;;;15.89;48.07;101068.69;5081475;27;45516;-70
2022/05/30 08:01:15;;;;;;;;;6.00;4.33;;;;;16.15;47.63;101084.88;5081634;28;45312;-70
2022/05/30 08:03:41;;;;;;;;;6.33;5.00;;;;;16.32;47.20;101077.47;5081062;27;45640;-70
2022/05/30 08:06:14;;;;;;;;;5.00;3.67;;;;;16.53;45.99;101079.59;5080026;28;45323;-69
2022/05/30 08:08:41;;;;;;;;;4.00;4.00;;;;;16.49;45.70;101081.84;5083691;27;45493;-69
2022/05/30 08:11:07;;;;;;;;;8.00;5.00;;;;;16.23;45.19;101082.13;5082594;27;46967;-69
2022/05/30 08:13:33;;;;;;;;;4.00;4.00;;;;;16.58;45.86;101079.94;5082165;27;45386;-69
2022/05/30 08:15:58;;;;;;;;;4.00;2.67;;;;;16.83;45.00;101086.16;5084135;28;45324;-69
2022/05/30 08:18:24;;;;;;;;;3.00;3.00;;;;;16.87;44.58;101093.84;5082445;27;45626;-69
2022/05/30 08:20:49;;;;;;;;;4.00;4.00;;;;;16.88;43.50;101084.56;5084295;27;46904;-69
2022/05/30 08:23:15;;;;;;;;;3.00;3.00;;;;;17.03;43.82;101081.88;5082016;27;45341;-69
2022/05/30 08:25:43;;;;;;;;;7.67;5.00;;;;;16.89;42.85;101079.94;5083985;27;45337;-70
2022/05/30 08:28:08;;;;;;;;;6.00;5.00;;;;;16.51;43.43;101079.75;5084997;27;45451;-70
2022/05/30 08:30:34;;;;;;;;;7.67;4.00;;;;;16.67;44.43;101087.94;5083033;28;46648;-70
2022/05/30 08:32:59;;;;;;;;;4.33;4.00;;;;;16.87;42.99;101077.38;5083235;27;45337;-69
2022/05/30 08:35:24;;;;;;;;;4.67;3.33;;;;;17.18;42.84;101084.69;5080000;27;45755;-70
2022/05/30 08:37:56;;;;;;;;;2.67;2.67;;;;;17.34;43.26;101074.44;5085179;27;45380;-70
2022/05/30 08:43:37;;;;;;;;;3.00;3.00;;;;;17.47;41.75;101071.91;5082938;27;45270;-70
2022/05/30 08:46:19;;;;;;;;;3.33;3.33;;;;;17.59;40.40;101064.09;5084456;27;45180;-70
2022/05/30 08:49:13;;;;;;;;;3.33;3.33;;;;;17.61;41.52;101062.03;5084761;28;45297;-70
2022/05/30 08:52:05;;;;;;;;;3.00;3.00;;;;;17.13;41.28;101066.91;5094875;27;47284;-70
2022/05/30 08:54:49;;;;;;;;;3.33;3.33;;;;;17.35;41.20;101062.44;5083016;28;45391;-68
2022/05/30 08:57:53;;;;;;;;;5.00;4.00;;;;;17.72;40.32;101061.59;5096244;27;45475;-69
2022/05/30 09:00:50;;;;;;;;;5.00;3.00;;;;;17.69;40.75;101061.97;5063983;28;45437;-69
2022/05/30 09:03:43;;;;;;;;;2.33;2.33;;;;;18.07;39.43;101064.66;5083827;27;45446;-69
2022/05/30 09:06:21;;;;;;;;;1.67;1.67;;;;;17.72;37.63;101061.59;5084073;27;45391;-69
2022/05/30 09:08:51;;;;;;;;;2.00;2.00;;;;;17.69;39.14;101056.47;5083787;27;45312;-69
2022/05/30 09:11:38;;;;;;;;;3.00;3.00;;;;;17.75;39.07;101055.72;5082990;28;45464;-69
2022/05/30 09:14:13;;;;;;;;;3.00;3.00;;;;;17.49;39.90;101058.00;5080909;28;48011;-69
2022/05/30 09:16:44;;;;;;;;;3.33;3.00;;;;;17.77;40.34;101064.63;5081282;27;45207;-69
2022/05/30 09:19:11;;;;;;;;;2.00;2.00;;;;;18.20;39.61;101060.19;5082579;28;45293;-69
2022/05/30 09:21:37;;;;;;;;;6.00;4.00;;;;;18.45;38.70;101057.13;5083486;27;45553;-69
2022/05/30 09:24:03;;;;;;;;;2.00;2.00;;;;;18.92;36.60;101064.94;5080786;28;45368;-69
2022/05/30 09:26:35;;;;;;;;;4.33;2.00;;;;;18.99;36.33;101054.84;5083257;27;45509;-70
2022/05/30 09:29:03;;;;;;;;;2.00;2.00;;;;;18.63;36.25;101052.09;5083482;27;45388;-69
2022/05/30 09:31:35;;;;;;;;;3.67;3.67;;;;;18.70;35.94;101057.69;5083689;27;45523;-69
2022/05/30 09:34:28;;;;;;;;;1.00;1.00;;;;;19.23;35.96;101059.94;5097494;27;47105;-69
2022/05/30 09:36:53;;;;;;;;;2.00;2.00;;;;;19.71;36.20;101058.31;5082649;27;45450;-69
2022/05/30 09:39:20;;;;;;;;;1.67;1.67;;;;;19.92;34.42;101048.25;5077801;27;45227;-68
2022/05/30 09:41:56;;;;;;;;;2.00;2.00;;;;;19.76;34.06;101043.91;5083668;27;45582;-69
2022/05/30 09:44:42;;;;;;;;;1.00;1.00;;;;;19.97;34.55;101029.19;5079892;28;45391;-70
2022/05/30 09:47:17;;;;;;;;;4.67;2.00;;;;;19.86;34.65;101030.63;5083335;27;45315;-70
2022/05/30 09:49:42;;;;;;;;;5.00;3.00;;;;;19.21;35.19;101030.91;5078059;28;45343;-70
2022/05/30 09:52:38;;;;;;;;;4.33;3.33;;;;;19.17;34.72;101024.94;5082828;27;45707;-70
2022/05/30 09:55:24;;;;;;;;;5.33;5.00;;;;;19.52;34.67;101017.63;5080508;28;48050;-70
2022/05/30 09:57:50;;;;;;;;;5.00;3.33;;;;;19.90;34.35;101017.25;5077862;27;45369;-70
2022/05/30 10:00:32;;;;;;;;;5.00;3.67;;;;;19.82;34.13;101021.88;5079507;28;45380;-69
2022/05/30 10:03:09;;;;;;;;;5.00;5.00;;;;;19.79;34.85;101029.72;5077525;27;45448;-70
2022/05/30 10:05:38;;;;;;;;;3.00;2.67;;;;;20.18;33.82;101024.44;5082641;27;45351;-70
2022/05/30 10:08:13;;;;;;;;;1.00;1.00;;;;;20.55;32.15;101020.38;5081292;27;45332;-70
2022/05/30 10:10:46;;;;;;;;;10.67;7.33;;;;;20.13;32.73;101021.44;5082998;27;45316;-70
2022/05/30 10:13:12;;;;;;;;;2.67;2.67;;;;;20.49;33.56;101018.44;5077880;27;45472;-70
2022/05/30 10:15:41;;;;;;;;;2.33;2.33;;;;;20.94;32.60;101025.16;5082534;27;46159;-70
2022/05/30 10:18:12;;;;;;;;;3.00;3.00;;;;;;;;5077975;27;45454;-70
2022/05/30 10:20:50;;;;;;;;;4.00;2.67;;;;;21.87;31.95;101008.59;5081563;28;45321;-69
2022/05/30 10:29:16;;;;;;;;;3.00;1.00;;;;;22.06;30.52;101016.06;5086853;28;45273;-68
2022/05/30 10:31:57;;;;;;;;;1.00;1.00;;;;;22.21;30.05;101016.63;5085307;27;45244;-68
2022/05/30 10:34:38;;;;;;;;;5.00;2.00;;;;;22.53;29.16;101015.66;5074180;28;45279;-68
2022/05/30 10:37:21;;;;;;;;;3.00;3.00;;;;;22.78;29.72;101028.78;5069993;27;46199;-69
2022/05/30 10:40:05;;;;;;;;;4.33;3.33;;;;;22.85;28.81;101035.13;5084552;27;45311;-68
2022/05/30 10:42:42;;;;;;;;;3.00;1.00;;;;;23.03;28.82;101029.69;5083433;27;45289;-69
2022/05/30 10:45:18;;;;;;;;;0.00;0.00;;;;;23.11;27.45;101026.63;5082270;27;45409;-69
2022/05/30 10:47:45;;;;;;;;;2.33;1.67;;;;;23.51;27.66;101020.84;5082302;27;46575;-70
2022/05/30 10:50:46;;;;;;;;;1.67;1.00;;;;;23.67;28.18;101014.69;5082906;27;45333;-70
2022/05/30 10:53:51;;;;;;;;;4.00;2.67;;;;;24.34;26.31;101024.03;5081963;27;45325;-70
2022/05/30 10:56:20;;;;;;;;;3.33;2.00;;;;;24.18;27.13;101024.66;5080540;28;45368;-70
2022/05/30 10:58:49;;;;;;;;;2.00;2.00;;;;;23.58;28.51;101016.94;5080402;27;45413;-70
2022/05/30 11:01:33;;;;;;;;;1.00;1.00;;;;;23.52;26.93;101015.06;5082595;28;45330;-70
2022/05/30 11:04:09;;;;;;;;;2.67;1.00;;;;;23.35;27.29;101010.25;5082324;28;45386;-70
2022/05/30 11:06:42;;;;;;;;;6.00;4.00;;;;;22.57;28.28;101012.47;5085819;27;45614;-68
2022/05/30 11:09:40;;;;;;;;;2.00;2.00;;;;;22.63;28.13;101017.09;5075928;28;45620;-67
2022/05/30 11:12:23;;;;;;;;;4.00;4.00;;;;;22.48;28.55;101004.41;5078857;27;45549;-70
2022/05/30 11:15:25;;;;;;;;;4.67;4.67;;;;;22.28;29.17;101009.16;5070869;27;45294;-69
2022/05/30 11:17:55;;;;;;;;;1.00;1.00;;;;;22.01;29.17;101021.38;5075325;27;45364;-69
2022/05/30 11:20:32;;;;;;;;;2.00;2.00;;;;;21.80;30.07;101024.38;5080893;28;48345;-69
2022/05/30 11:22:58;;;;;;;;;3.00;2.00;;;;;22.12;29.34;101015.19;5080792;27;46172;-70
2022/05/30 11:25:41;;;;;;;;;2.00;2.00;;;;;22.19;29.98;101013.25;5070375;27;45560;-72
2022/05/30 11:28:12;;;;;;;;;2.00;2.00;;;;;22.28;28.89;101016.63;5077007;27;45313;-73
2022/05/30 11:30:46;;;;;;;;;3.00;3.00;;;;;22.15;29.14;101009.19;5071200;28;45449;-70
2022/05/30 11:33:17;;;;;;;;;3.33;2.00;;;;;21.77;27.94;101008.22;5081348;27;45243;-70
2022/05/30 11:36:09;;;;;;;;;1.00;1.00;;;;;22.10;29.04;101003.47;5081937;28;45479;-72
2022/05/30 11:39:02;;;;;;;;;1.00;1.00;;;;;22.97;27.75;101002.88;5081967;27;45361;-69
2022/05/30 11:41:49;;;;;;;;;2.00;2.00;;;;;23.04;27.34;101005.59;5079988;27;46980;-70
2022/05/30 11:44:33;;;;;;;;;6.67;4.00;;;;;23.32;27.34;100996.84;5085015;28;45230;-72
2022/05/30 11:47:27;;;;;;;;;2.00;2.00;;;;;23.92;26.15;101001.63;5085382;27;45693;-71
2022/05/30 11:50:02;;;;;;;;;1.33;1.33;;;;;24.23;26.57;100997.91;5083247;28;45565;-72
2022/05/30 11:52:39;;;;;;;;;2.00;2.00;;;;;25.17;26.34;100999.19;5084158;27;45530;-74
2022/05/30 11:55:14;;;;;;;;;1.67;1.00;;;;;25.63;23.46;100992.03;5080659;28;45452;-75